Pittsfield, New Hampshire
Current Conditions -  °F | °C
As of 9:51 AM on Saturday 25 Oct 2014 (Local Time) from KCON Reporting Station
Clear Clear  
Wind Chill: 53°   Ceiling: Unl
Heat Index: 53°   Visibility: 10mi
Dew Point: 40°   Wind: 6mph
Humidity: 61%   Direction: 320°NW
Pressure: 29.73"   Gusts: NA
Location:  43.31°N, 71.32°W
Report Text: KCON 251351Z AUTO 32005KT 10SM CLR 12/04 A2973 RMK AO2 SLP067 T01170044
Loading
Personal Weather Stations






























Interactive Weather Map
Tropical Storm Tracking
New forecast layout! Learn more

10-Day Weather Forecast

Advertisements
Track Severe Weather on mobile